Time;durP1;ratioP1;P1;durP2;ratioP2;P2;SDS_P1;SDS_P2;PMS_P1;PMS_P2;Temp;Humidity;BMP_temperature;BMP_pressure;BME280_temperature;BME280_humidity;BME280_pressure;Samples;Min_cycle;Max_cycle;Signal;HPM_P1;HPM_P2
2023/08/28 00:00:50;;;;;;;0.80;0.60;;;22.90;65.50;;;;;;6194640;28;20081;-72
2023/08/28 00:03:50;;;;;;;1.35;0.82;;;22.90;65.50;;;;;;6195544;28;20476;-72
2023/08/28 00:06:52;;;;;;;1.02;0.70;;;22.90;65.50;;;;;;6194828;28;20125;-72
2023/08/28 00:09:52;;;;;;;0.88;0.60;;;22.90;65.50;;;;;;6195317;28;20058;-71
2023/08/28 00:12:53;;;;;;;0.70;0.60;;;22.90;65.50;;;;;;6195517;28;20030;-72
2023/08/28 00:15:53;;;;;;;0.73;0.70;;;22.90;65.50;;;;;;6198781;28;20035;-71
2023/08/28 00:18:55;;;;;;;0.50;0.45;;;22.90;65.50;;;;;;6195404;28;20346;-72
2023/08/28 00:21:55;;;;;;;0.73;0.60;;;22.90;65.60;;;;;;6194704;28;20440;-72
2023/08/28 00:24:56;;;;;;;0.60;0.50;;;22.90;65.60;;;;;;6193880;28;20042;-71
2023/08/28 00:27:56;;;;;;;0.55;0.52;;;22.90;65.60;;;;;;6195650;28;20034;-72
2023/08/28 00:30:57;;;;;;;0.60;0.60;;;22.90;65.60;;;;;;6195274;28;20508;-72
2023/08/28 00:33:58;;;;;;;0.40;0.32;;;22.90;65.50;;;;;;6194864;28;20077;-71
2023/08/28 00:36:58;;;;;;;0.68;0.68;;;22.90;65.60;;;;;;6193809;28;20044;-72
2023/08/28 00:39:59;;;;;;;0.50;0.40;;;22.90;65.60;;;;;;6194373;28;20054;-71
2023/08/28 00:42:59;;;;;;;0.50;0.50;;;22.90;65.60;;;;;;6194846;28;20029;-72
2023/08/28 00:46:02;;;;;;;0.70;0.60;;;22.80;65.50;;;;;;6194514;28;20030;-71
2023/08/28 00:49:03;;;;;;;0.70;0.60;;;22.90;65.60;;;;;;6209583;28;20445;-71
2023/08/28 00:52:04;;;;;;;0.88;0.50;;;22.90;65.60;;;;;;6194161;28;20053;-71
2023/08/28 00:55:05;;;;;;;0.63;0.60;;;22.90;65.60;;;;;;6193059;28;20030;-71
2023/08/28 00:58:06;;;;;;;0.60;0.60;;;22.90;66.40;;;;;;6194360;28;20042;-71
2023/08/28 01:01:06;;;;;;;0.55;0.50;;;22.90;65.50;;;;;;6193991;28;20038;-70
2023/08/28 01:04:07;;;;;;;0.77;0.75;;;22.90;65.60;;;;;;6194069;28;20420;-71
2023/08/28 01:07:23;;;;;;;0.75;0.70;;;22.90;65.60;;;;;;6194273;28;20034;-72
2023/08/28 01:10:36;;;;;;;;;;;22.90;65.60;;;;;;6194411;28;20140;-71
2023/08/28 01:13:50;;;;;;;0.90;0.80;;;22.90;65.60;;;;;;6193472;28;20000;-71
2023/08/28 01:16:54;;;;;;;0.50;0.50;;;22.90;65.60;;;;;;6193658;28;20026;-72
2023/08/28 01:19:55;;;;;;;0.80;0.68;;;22.90;66.40;;;;;;6193387;28;20037;-71
2023/08/28 01:23:18;;;;;;;0.50;0.40;;;22.90;66.40;;;;;;6194629;28;20377;-71
2023/08/28 01:26:19;;;;;;;0.40;0.40;;;22.90;65.60;;;;;;6193401;28;20116;-72
2023/08/28 01:29:19;;;;;;;0.55;0.50;;;22.90;65.60;;;;;;6193625;28;20027;-72
2023/08/28 01:32:20;;;;;;;0.60;0.60;;;22.90;65.60;;;;;;6190791;28;20026;-72
2023/08/28 01:35:25;;;;;;;1.10;0.90;;;22.90;65.60;;;;;;6192832;28;20621;-71
2023/08/28 01:38:35;;;;;;;0.35;0.32;;;22.90;65.60;;;;;;6193741;28;20073;-71
2023/08/28 01:41:39;;;;;;;0.47;0.43;;;22.90;65.60;;;;;;6192925;28;20310;-71
2023/08/28 01:44:41;;;;;;;0.53;0.50;;;22.90;65.60;;;;;;6193452;28;20034;-71
2023/08/28 01:47:41;;;;;;;1.77;0.80;;;22.90;65.60;;;;;;6192565;28;20109;-71
2023/08/28 01:50:42;;;;;;;0.50;0.50;;;22.90;65.60;;;;;;6192814;28;20053;-71
2023/08/28 01:53:43;;;;;;;0.45;0.43;;;22.90;65.60;;;;;;6192838;28;20050;-71
2023/08/28 01:56:43;;;;;;;0.38;0.38;;;22.80;65.50;;;;;;6192653;28;20037;-71
2023/08/28 01:59:44;;;;;;;0.60;0.60;;;22.90;65.60;;;;;;6192613;28;20589;-72
2023/08/28 02:02:45;;;;;;;0.52;0.47;;;22.90;65.60;;;;;;6192368;28;20031;-72
2023/08/28 02:05:45;;;;;;;0.60;0.60;;;22.90;65.60;;;;;;6192419;28;20038;-71
2023/08/28 02:08:46;;;;;;;0.73;0.50;;;22.90;65.60;;;;;;6192883;28;20037;-70
2023/08/28 02:11:47;;;;;;;0.57;0.50;;;22.90;65.60;;;;;;6192681;28;20130;-71
2023/08/28 02:14:47;;;;;;;0.43;0.43;;;22.90;65.60;;;;;;6193322;28;20040;-71
2023/08/28 02:17:48;;;;;;;0.50;0.50;;;22.80;65.50;;;;;;6193657;28;20019;-72
2023/08/28 02:20:49;;;;;;;0.70;0.60;;;22.80;65.50;;;;;;6192864;28;20026;-70
2023/08/28 02:23:50;;;;;;;0.70;0.55;;;22.80;65.80;;;;;;6193046;28;20517;-72
2023/08/28 02:26:50;;;;;;;0.75;0.40;;;22.90;65.60;;;;;;6192759;28;20057;-71
2023/08/28 02:29:51;;;;;;;0.40;0.40;;;22.90;65.60;;;;;;6193378;28;20072;-72
2023/08/28 02:32:52;;;;;;;0.60;0.60;;;22.80;65.50;;;;;;6192763;28;20080;-72
2023/08/28 02:35:52;;;;;;;0.60;0.50;;;22.90;65.60;;;;;;6192509;28;20388;-71
2023/08/28 02:38:53;;;;;;;0.60;0.55;;;22.90;65.60;;;;;;6192539;28;20073;-72
2023/08/28 02:41:54;;;;;;;0.70;0.50;;;22.80;65.50;;;;;;6193055;28;20019;-72
2023/08/28 02:44:54;;;;;;;0.50;0.50;;;22.80;65.50;;;;;;6192892;28;20022;-72
2023/08/28 02:47:55;;;;;;;0.57;0.50;;;22.90;65.60;;;;;;6194653;28;20424;-72
2023/08/28 02:50:56;;;;;;;0.68;0.60;;;22.80;65.50;;;;;;6197013;28;20062;-72
2023/08/28 02:53:56;;;;;;;0.68;0.60;;;22.90;65.60;;;;;;6197383;28;20033;-72
2023/08/28 02:56:57;;;;;;;0.43;0.40;;;22.90;65.60;;;;;;6196160;28;20042;-71
2023/08/28 02:59:57;;;;;;;0.50;0.50;;;22.80;65.60;;;;;;6196554;28;20038;-72
2023/08/28 03:03:00;;;;;;;0.70;0.57;;;22.80;65.50;;;;;;6196264;28;20069;-72
2023/08/28 03:06:04;;;;;;;0.70;0.40;;;22.90;65.60;;;;;;6196517;28;20117;-72
2023/08/28 03:09:09;;;;;;;0.40;0.40;;;22.80;65.50;;;;;;6195884;28;20060;-71
2023/08/28 03:12:11;;;;;;;0.52;0.52;;;22.90;65.60;;;;;;6196896;28;20093;-72
2023/08/28 03:15:12;;;;;;;0.50;0.50;;;22.90;65.70;;;;;;6197107;28;20037;-72
2023/08/28 03:18:12;;;;;;;0.77;0.50;;;22.80;65.60;;;;;;6196424;28;20112;-72
2023/08/28 03:21:13;;;;;;;0.50;0.50;;;22.90;65.60;;;;;;6196905;28;20034;-72
2023/08/28 03:24:14;;;;;;;0.50;0.50;;;22.90;65.60;;;;;;6196572;28;20605;-72
2023/08/28 03:27:14;;;;;;;0.40;0.40;;;22.80;65.50;;;;;;6196085;28;20148;-72
2023/08/28 03:30:15;;;;;;;0.40;0.40;;;22.80;65.50;;;;;;6195661;28;20026;-72
2023/08/28 03:33:15;;;;;;;0.50;0.50;;;22.80;65.60;;;;;;6193844;28;20449;-72
2023/08/28 03:36:16;;;;;;;0.85;0.60;;;22.80;65.50;;;;;;6195668;28;20349;-72
2023/08/28 03:39:17;;;;;;;0.68;0.40;;;22.80;65.50;;;;;;6195416;28;20045;-71
2023/08/28 03:42:17;;;;;;;0.65;0.43;;;22.80;65.50;;;;;;6195132;28;20464;-72
2023/08/28 03:45:18;;;;;;;0.52;0.50;;;22.80;65.60;;;;;;6195621;28;20034;-71
2023/08/28 03:48:18;;;;;;;1.02;0.43;;;22.80;65.50;;;;;;6194993;28;20043;-72
2023/08/28 03:51:19;;;;;;;0.47;0.47;;;22.80;65.50;;;;;;6196469;28;20089;-71
2023/08/28 03:54:20;;;;;;;2.80;0.63;;;22.80;65.50;;;;;;6195547;28;20113;-72
2023/08/28 03:57:20;;;;;;;0.52;0.52;;;22.80;65.50;;;;;;6191905;28;20027;-72
2023/08/28 04:00:39;;;;;;;0.50;0.50;;;22.80;65.50;;;;;;6195658;28;20022;-71
2023/08/28 04:03:40;;;;;;;0.70;0.60;;;22.80;65.60;;;;;;6195164;28;20042;-70
2023/08/28 04:06:41;;;;;;;0.43;0.40;;;22.80;65.50;;;;;;6195794;28;20377;-71
2023/08/28 04:09:41;;;;;;;0.47;0.47;;;22.80;65.60;;;;;;6195590;28;20074;-71
2023/08/28 04:12:42;;;;;;;0.50;0.40;;;22.80;65.60;;;;;;6195636;28;20045;-72
2023/08/28 04:15:43;;;;;;;0.40;0.40;;;22.80;65.60;;;;;;6195034;28;20057;-72
2023/08/28 04:18:43;;;;;;;0.40;0.40;;;22.80;65.50;;;;;;6195321;28;20097;-72
2023/08/28 04:21:44;;;;;;;0.70;0.57;;;22.80;65.60;;;;;;6195785;28;20049;-71
2023/08/28 04:24:45;;;;;;;0.50;0.40;;;22.80;65.60;;;;;;6195268;28;20038;-72
2023/08/28 04:27:46;;;;;;;0.50;0.50;;;22.80;65.50;;;;;;6193728;28;20046;-71
2023/08/28 04:30:47;;;;;;;0.50;0.50;;;22.80;65.50;;;;;;6195129;28;20029;-72
2023/08/28 04:33:47;;;;;;;0.40;0.40;;;22.80;65.60;;;;;;6195084;28;20034;-71
2023/08/28 04:36:48;;;;;;;0.43;0.43;;;22.80;65.60;;;;;;6184003;28;20110;-71
2023/08/28 04:39:49;;;;;;;0.70;0.50;;;22.80;65.60;;;;;;6189953;28;20026;-71
2023/08/28 04:42:49;;;;;;;0.40;0.40;;;22.80;65.50;;;;;;6192524;28;20529;-72
2023/08/28 04:45:50;;;;;;;1.20;0.60;;;22.80;65.50;;;;;;6181268;28;20030;-72
2023/08/28 04:48:51;;;;;;;3.88;0.80;;;22.80;64.50;;;;;;6191448;28;20030;-71
2023/08/28 04:51:51;;;;;;;0.88;0.50;;;22.80;63.30;;;;;;6192431;28;20027;-72
2023/08/28 04:54:52;;;;;;;0.70;0.50;;;22.80;62.80;;;;;;6192122;28;20026;-72
2023/08/28 04:57:52;;;;;;;0.50;0.50;;;22.80;63.20;;;;;;6188390;28;20117;-71
2023/08/28 05:00:53;;;;;;;0.95;0.70;;;22.80;63.60;;;;;;6190215;28;20066;-71
2023/08/28 05:03:53;;;;;;;0.68;0.50;;;22.70;63.10;;;;;;6188205;28;20042;-72
2023/08/28 05:06:54;;;;;;;2.80;0.60;;;22.70;62.70;;;;;;6192538;28;20038;-71
2023/08/28 05:09:54;;;;;;;0.82;0.60;;;22.70;63.70;;;;;;6191486;28;20188;-72
2023/08/28 05:12:55;;;;;;;1.77;0.80;;;22.70;63.10;;;;;;6192245;28;20044;-71
2023/08/28 05:15:56;;;;;;;1.77;0.70;;;22.70;62.30;;;;;;6191870;28;20027;-71
2023/08/28 05:18:56;;;;;;;2.10;0.90;;;22.70;63.00;;;;;;6192392;28;20018;-72
2023/08/28 05:21:57;;;;;;;2.63;0.80;;;22.70;63.10;;;;;;6192582;28;20061;-71
2023/08/28 05:24:58;;;;;;;1.85;0.80;;;22.70;63.00;;;;;;6192371;28;20026;-72
2023/08/28 05:27:58;;;;;;;1.95;0.95;;;22.70;62.70;;;;;;6182145;28;20045;-72
2023/08/28 05:30:59;;;;;;;1.80;1.00;;;22.70;61.20;;;;;;6191230;28;20026;-71
2023/08/28 05:33:59;;;;;;;4.43;1.00;;;22.70;60.40;;;;;;6191606;28;20093;-71
2023/08/28 05:37:00;;;;;;;1.85;1.10;;;22.70;59.90;;;;;;6191511;28;20034;-71
2023/08/28 05:40:00;;;;;;;2.00;1.48;;;22.70;62.20;;;;;;6192377;28;20057;-72
2023/08/28 05:43:01;;;;;;;8.35;2.83;;;22.70;60.20;;;;;;6191716;28;20110;-71
2023/08/28 05:46:02;;;;;;;4.13;1.90;;;22.70;59.30;;;;;;6191571;28;20078;-73
2023/08/28 05:49:02;;;;;;;6.30;1.17;;;22.70;60.00;;;;;;6192094;28;20026;-72
2023/08/28 05:52:03;;;;;;;1.75;0.95;;;22.80;61.20;;;;;;6192397;28;20033;-71
2023/08/28 05:55:05;;;;;;;2.22;1.13;;;22.80;60.90;;;;;;6191267;28;20038;-72
2023/08/28 05:58:05;;;;;;;3.33;1.15;;;22.80;61.70;;;;;;6190763;28;20057;-72
2023/08/28 06:01:06;;;;;;;6.55;1.73;;;22.80;59.70;;;;;;6186506;28;20455;-70
2023/08/28 06:04:07;;;;;;;6.95;1.80;;;22.80;59.50;;;;;;6188830;28;20023;-71
2023/08/28 06:07:07;;;;;;;2.22;1.10;;;22.80;59.60;;;;;;6191275;28;20133;-70
2023/08/28 06:10:11;;;;;;;7.65;1.10;;;22.80;60.80;;;;;;6192511;28;20051;-72
2023/08/28 06:13:12;;;;;;;2.65;1.15;;;22.80;61.70;;;;;;6193101;28;20454;-71
2023/08/28 06:16:12;;;;;;;2.20;1.10;;;22.80;61.70;;;;;;6192909;28;20037;-71
2023/08/28 06:19:13;;;;;;;2.97;1.30;;;22.80;62.00;;;;;;6193238;28;20058;-71
2023/08/28 06:22:13;;;;;;;3.78;1.40;;;22.80;62.20;;;;;;6194893;28;20037;-71
2023/08/28 06:25:14;;;;;;;2.50;1.52;;;22.80;62.10;;;;;;6197204;28;20401;-71
2023/08/28 06:28:15;;;;;;;2.10;1.02;;;22.80;62.20;;;;;;6197473;28;20088;-71
2023/08/28 06:31:15;;;;;;;2.55;1.10;;;22.80;62.40;;;;;;6197103;28;20030;-71
2023/08/28 06:34:16;;;;;;;4.32;1.45;;;22.80;62.30;;;;;;6196887;28;20026;-72
2023/08/28 06:37:17;;;;;;;3.42;1.20;;;22.80;62.30;;;;;;6197319;28;20050;-71
2023/08/28 06:40:17;;;;;;;1.73;1.20;;;22.80;62.40;;;;;;6197278;28;20109;-71
2023/08/28 06:43:18;;;;;;;2.17;1.13;;;22.80;62.40;;;;;;6196976;28;20023;-71
2023/08/28 06:46:19;;;;;;;2.25;1.00;;;22.70;62.50;;;;;;6197280;28;20081;-72
2023/08/28 06:49:20;;;;;;;2.53;0.98;;;22.80;62.60;;;;;;6197327;28;20034;-71
2023/08/28 06:52:21;;;;;;;1.13;0.70;;;22.80;62.70;;;;;;6197604;28;20026;-71
2023/08/28 06:55:22;;;;;;;1.20;0.90;;;22.80;62.80;;;;;;6197291;28;20492;-71
2023/08/28 06:58:22;;;;;;;2.17;1.00;;;22.80;62.80;;;;;;6197037;28;20117;-72
2023/08/28 07:01:23;;;;;;;2.53;1.05;;;22.80;62.80;;;;;;6197386;28;20708;-71
2023/08/28 07:04:24;;;;;;;1.60;0.90;;;22.80;62.90;;;;;;6188884;28;20540;-72
2023/08/28 07:07:24;;;;;;;1.10;0.80;;;22.70;62.90;;;;;;6196438;28;20347;-72
2023/08/28 07:10:25;;;;;;;2.00;1.00;;;22.80;63.00;;;;;;6196662;28;20074;-72
2023/08/28 07:13:25;;;;;;;2.17;1.40;;;22.70;63.00;;;;;;6196733;28;20393;-72
2023/08/28 07:16:26;;;;;;;1.73;1.02;;;22.80;63.10;;;;;;6197157;28;20027;-72
2023/08/28 07:19:27;;;;;;;2.15;1.27;;;22.70;63.10;;;;;;6196412;28;20102;-72
2023/08/28 07:22:27;;;;;;;1.90;1.10;;;22.80;63.20;;;;;;6196787;28;20029;-72
2023/08/28 07:25:28;;;;;;;1.42;1.00;;;22.80;63.20;;;;;;6196123;28;20551;-71
2023/08/28 07:28:30;;;;;;;1.42;0.90;;;22.80;63.30;;;;;;6197054;28;20026;-71
2023/08/28 07:31:30;;;;;;;1.65;0.82;;;22.80;63.30;;;;;;6194954;28;20030;-71
2023/08/28 07:34:32;;;;;;;1.38;0.90;;;22.80;63.40;;;;;;6195773;28;20052;-72
2023/08/28 07:37:36;;;;;;;1.20;0.82;;;22.80;63.40;;;;;;6196378;28;20088;-72
2023/08/28 07:40:37;;;;;;;1.02;0.93;;;22.80;63.50;;;;;;6196365;28;20101;-71
2023/08/28 07:43:37;;;;;;;0.80;0.73;;;22.80;63.50;;;;;;6196635;28;20038;-71
2023/08/28 07:46:38;;;;;;;1.88;1.05;;;22.80;63.50;;;;;;6196066;28;20081;-72
2023/08/28 07:49:39;;;;;;;1.40;0.80;;;22.80;63.50;;;;;;6195659;28;20036;-71
2023/08/28 07:52:40;;;;;;;1.42;0.93;;;22.80;63.40;;;;;;6195659;28;20109;-72
2023/08/28 07:55:41;;;;;;;1.05;0.90;;;22.80;63.90;;;;;;6195967;28;20034;-71
2023/08/28 07:58:42;;;;;;;3.33;1.42;;;22.80;62.80;;;;;;6195273;28;20449;-71
2023/08/28 08:01:43;;;;;;;3.53;0.95;;;22.70;61.20;;;;;;6195488;28;20250;-72
2023/08/28 08:04:43;;;;;;;3.25;1.30;;;22.70;61.00;;;;;;6195690;28;20057;-72
2023/08/28 08:07:44;;;;;;;4.20;1.20;;;22.80;61.20;;;;;;6194229;28;20133;-71
2023/08/28 08:10:45;;;;;;;1.92;1.08;;;22.70;60.90;;;;;;6194916;28;20061;-71
2023/08/28 08:13:45;;;;;;;2.35;1.48;;;22.70;60.70;;;;;;6195826;28;20495;-71
2023/08/28 08:16:46;;;;;;;1.50;1.10;;;22.70;59.50;;;;;;6195297;28;20062;-71
2023/08/28 08:19:46;;;;;;;3.40;1.20;;;22.70;59.70;;;;;;6195529;28;20461;-72
2023/08/28 08:22:47;;;;;;;2.53;1.05;;;22.70;59.60;;;;;;6195646;28;20045;-72
2023/08/28 08:25:48;;;;;;;2.15;0.80;;;22.70;59.70;;;;;;6195799;28;20022;-72
2023/08/28 08:28:49;;;;;;;1.80;0.90;;;22.70;59.70;;;;;;6194746;28;20120;-72
2023/08/28 08:31:51;;;;;;;2.45;0.80;;;22.70;60.30;;;;;;6193909;28;20046;-71
2023/08/28 08:34:51;;;;;;;3.17;0.90;;;22.70;59.80;;;;;;6194199;28;20498;-71
2023/08/28 08:37:55;;;;;;;2.40;0.82;;;22.70;60.00;;;;;;6195027;28;20065;-72
2023/08/28 08:41:01;;;;;;;2.10;1.00;;;22.70;60.00;;;;;;6195135;28;20525;-72
2023/08/28 08:44:01;;;;;;;2.10;0.93;;;22.70;59.50;;;;;;6193564;28;20022;-72
2023/08/28 08:47:05;;;;;;;3.53;0.98;;;22.70;60.00;;;;;;6194545;28;20126;-72
2023/08/28 08:50:08;;;;;;;0.98;0.70;;;22.70;59.10;;;;;;6195285;28;20022;-72
2023/08/28 08:53:24;;;;;;;2.08;0.80;;;22.70;59.00;;;;;;6194460;28;20026;-71
2023/08/28 08:56:29;;;;;;;6.05;1.27;;;22.70;58.90;;;;;;6194555;28;20014;-72
2023/08/28 08:59:29;;;;;;;2.42;0.98;;;22.70;58.70;;;;;;6194556;28;20042;-71
2023/08/28 09:02:32;;;;;;;5.00;1.30;;;22.70;59.30;;;;;;6194209;28;20037;-71
2023/08/28 09:05:33;;;;;;;2.20;1.00;;;22.70;58.80;;;;;;6194498;28;20018;-71
2023/08/28 09:08:40;;;;;;;4.82;1.45;;;22.70;57.90;;;;;;6194505;28;20097;-72
2023/08/28 09:11:40;;;;;;;2.35;0.98;;;22.70;58.20;;;;;;6194067;28;20061;-72
2023/08/28 09:14:41;;;;;;;2.13;1.23;;;22.70;58.20;;;;;;6193903;28;20057;-71
2023/08/28 09:17:42;;;;;;;3.42;1.30;;;22.70;58.30;;;;;;6193890;28;20041;-71
2023/08/28 09:20:42;;;;;;;2.67;1.25;;;22.70;59.00;;;;;;6194149;28;21944;-72
2023/08/28 09:23:50;;;;;;;2.38;0.98;;;22.70;58.20;;;;;;6193933;28;20026;-70
2023/08/28 09:26:52;;;;;;;2.42;1.30;;;22.70;57.60;;;;;;6193845;28;20497;-72
2023/08/28 09:29:53;;;;;;;4.15;1.60;;;22.70;58.30;;;;;;6193702;28;20031;-71
2023/08/28 09:32:53;;;;;;;3.13;1.25;;;22.70;57.80;;;;;;6193390;28;20029;-72
2023/08/28 09:35:58;;;;;;;2.97;1.00;;;22.70;57.90;;;;;;6194132;28;20033;-71
2023/08/28 09:39:01;;;;;;;3.60;1.10;;;22.70;58.10;;;;;;6192699;28;20069;-72
2023/08/28 09:42:05;;;;;;;2.25;0.88;;;22.70;58.10;;;;;;6193133;28;20428;-72
2023/08/28 09:45:07;;;;;;;1.80;0.70;;;22.70;58.20;;;;;;6194031;28;20030;-71
2023/08/28 09:48:09;;;;;;;3.08;1.17;;;22.70;58.30;;;;;;6193382;28;20434;-71
2023/08/28 09:51:09;;;;;;;1.58;0.82;;;22.60;58.30;;;;;;6193560;28;20030;-71
2023/08/28 09:54:13;;;;;;;1.92;0.90;;;22.60;58.20;;;;;;6193172;28;20033;-71
2023/08/28 09:57:16;;;;;;;2.03;1.08;;;22.60;58.30;;;;;;6197352;28;20041;-71
2023/08/28 10:00:17;;;;;;;1.63;0.90;;;22.60;57.90;;;;;;6198792;28;20037;-72
2023/08/28 10:03:20;;;;;;;2.60;0.95;;;22.60;57.80;;;;;;6198959;28;20022;-71
2023/08/28 10:06:22;;;;;;;2.22;1.10;;;22.60;58.00;;;;;;6197978;28;20420;-72
2023/08/28 10:09:25;;;;;;;3.45;1.52;;;22.60;57.70;;;;;;6198445;28;20412;-71
2023/08/28 10:12:27;;;;;;;1.98;1.10;;;22.60;57.50;;;;;;6197710;28;20497;-71
2023/08/28 10:15:28;;;;;;;1.95;1.20;;;22.60;57.90;;;;;;6198040;28;20018;-71
2023/08/28 10:18:39;;;;;;;2.88;1.20;;;22.60;57.50;;;;;;6197922;28;20158;-72
2023/08/28 10:21:42;;;;;;;2.88;0.95;;;22.60;57.20;;;;;;6198332;28;20068;-72
2023/08/28 10:24:44;;;;;;;2.53;1.25;;;22.60;57.80;;;;;;6198667;28;20050;-72
2023/08/28 10:27:46;;;;;;;3.85;1.23;;;22.60;57.20;;;;;;6197780;28;20121;-71
2023/08/28 10:30:50;;;;;;;3.72;1.08;;;22.60;57.70;;;;;;6197525;28;20038;-72
2023/08/28 10:33:52;;;;;;;2.65;1.05;;;22.60;57.70;;;;;;6197761;28;20049;-71
2023/08/28 10:36:54;;;;;;;2.15;1.13;;;22.60;57.70;;;;;;6197258;28;20058;-72
2023/08/28 10:40:01;;;;;;;1.65;1.15;;;22.60;56.90;;;;;;6197749;28;20022;-71
2023/08/28 10:43:03;;;;;;;2.17;1.10;;;22.60;57.50;;;;;;6186653;28;20104;-72
2023/08/28 10:46:04;;;;;;;9.98;1.35;;;22.60;57.20;;;;;;6195815;28;20026;-72
2023/08/28 10:49:06;;;;;;;8.70;1.20;;;22.60;57.30;;;;;;6196910;28;20592;-72
2023/08/28 10:52:06;;;;;;;1.48;0.98;;;22.60;57.80;;;;;;6197219;28;20034;-72
2023/08/28 10:55:09;;;;;;;3.95;1.02;;;22.60;57.80;;;;;;6197681;28;20601;-71
2023/08/28 10:58:10;;;;;;;5.10;1.20;;;22.60;57.60;;;;;;6197075;28;20429;-72
2023/08/28 11:01:17;;;;;;;2.25;0.82;;;22.60;56.70;;;;;;6197152;28;20061;-72
2023/08/28 11:04:19;;;;;;;2.13;0.90;;;22.60;57.60;;;;;;6197060;28;20026;-71
2023/08/28 11:07:25;;;;;;;3.55;1.30;;;22.60;57.50;;;;;;6195692;28;20464;-71
2023/08/28 11:10:25;;;;;;;3.70;1.35;;;22.60;56.80;;;;;;6189683;28;20165;-72
2023/08/28 11:13:26;;;;;;;1.92;0.93;;;22.60;57.00;;;;;;6196914;28;20468;-71
2023/08/28 11:16:27;;;;;;;4.57;1.15;;;22.60;58.30;;;;;;6195360;28;20026;-72
2023/08/28 11:19:29;;;;;;;6.68;0.93;;;22.60;57.60;;;;;;6196742;28;20378;-72
2023/08/28 11:22:37;;;;;;;4.72;1.02;;;22.60;56.50;;;;;;6196351;28;20030;-72
2023/08/28 11:25:40;;;;;;;5.38;1.13;;;22.60;57.50;;;;;;6196458;28;20026;-71
2023/08/28 11:28:48;;;;;;;4.20;1.10;;;22.70;57.50;;;;;;6196677;28;20030;-70
2023/08/28 11:31:50;;;;;;;6.32;1.52;;;22.60;59.50;;;;;;6196197;28;20444;-72
2023/08/28 11:34:51;;;;;;;2.33;0.98;;;22.60;59.50;;;;;;6196331;28;20142;-72
2023/08/28 11:37:54;;;;;;;2.95;1.30;;;22.60;59.80;;;;;;6195948;28;20018;-72
2023/08/28 11:40:58;;;;;;;1.83;0.85;;;22.60;60.00;;;;;;6196584;28;20320;-72
2023/08/28 11:43:58;;;;;;;1.90;0.93;;;22.60;60.00;;;;;;6196072;28;20101;-71
2023/08/28 11:46:59;;;;;;;1.35;0.88;;;22.60;60.00;;;;;;6186670;28;20100;-71
2023/08/28 11:50:03;;;;;;;2.05;1.05;;;22.60;60.10;;;;;;6189512;28;20548;-71
2023/08/28 11:53:04;;;;;;;1.33;0.83;;;22.60;60.20;;;;;;6195865;28;20076;-72
2023/08/28 11:56:05;;;;;;;1.98;1.00;;;22.60;60.00;;;;;;6196084;28;20038;-71
2023/08/28 11:59:08;;;;;;;1.60;0.73;;;22.60;60.40;;;;;;6193658;28;20133;-72
2023/08/28 12:02:08;;;;;;;1.90;0.90;;;22.60;60.40;;;;;;6196324;28;20121;-71
2023/08/28 12:05:10;;;;;;;1.45;0.90;;;22.60;60.30;;;;;;6195293;28;20033;-71
2023/08/28 12:08:12;;;;;;;1.50;0.85;;;22.60;60.30;;;;;;6195379;28;20038;-72
2023/08/28 12:11:13;;;;;;;1.55;0.93;;;22.60;60.40;;;;;;6192005;28;20054;-71
2023/08/28 12:14:17;;;;;;;1.63;0.80;;;22.60;60.50;;;;;;6195161;28;20085;-72
2023/08/28 12:17:21;;;;;;;1.02;0.68;;;22.60;60.50;;;;;;6195070;28;20555;-72
2023/08/28 12:20:22;;;;;;;1.48;0.75;;;22.60;60.70;;;;;;6193350;28;20057;-72
2023/08/28 12:23:23;;;;;;;1.00;0.70;;;22.60;60.80;;;;;;6185522;28;20034;-71
2023/08/28 12:26:24;;;;;;;1.35;0.68;;;22.70;60.80;;;;;;6195315;28;20023;-72
2023/08/28 12:29:25;;;;;;;2.08;0.80;;;22.70;60.90;;;;;;6196252;28;20049;-71
2023/08/28 12:32:26;;;;;;;1.52;0.70;;;22.70;60.90;;;;;;6194684;28;20096;-71
2023/08/28 12:35:27;;;;;;;0.85;0.57;;;22.80;61.00;;;;;;6194089;28;20022;-72
2023/08/28 12:38:28;;;;;;;2.88;0.90;;;22.80;61.20;;;;;;6194725;28;20026;-72
2023/08/28 12:41:32;;;;;;;1.85;0.65;;;22.80;61.30;;;;;;6193519;28;20231;-71
2023/08/28 12:44:32;;;;;;;3.43;0.60;;;22.80;61.40;;;;;;6194562;28;20034;-71
2023/08/28 12:47:33;;;;;;;2.45;0.75;;;22.80;61.00;;;;;;6194710;28;20088;-70
2023/08/28 12:50:37;;;;;;;1.42;0.77;;;22.70;59.00;;;;;;6194125;28;20030;-72
2023/08/28 12:53:37;;;;;;;0.93;0.77;;;22.80;61.50;;;;;;6194379;28;20034;-71
2023/08/28 12:56:38;;;;;;;0.95;0.80;;;22.80;61.10;;;;;;6193908;28;20505;-71
2023/08/28 12:59:39;;;;;;;3.35;0.85;;;22.80;61.40;;;;;;6192696;28;20426;-71
2023/08/28 13:02:39;;;;;;;1.48;0.82;;;22.80;59.90;;;;;;6194251;28;20018;-71
2023/08/28 13:05:41;;;;;;;1.98;0.77;;;22.80;60.50;;;;;;6194785;28;20026;-71
2023/08/28 13:08:42;;;;;;;2.60;0.75;;;22.80;61.40;;;;;;6194258;28;20030;-71
2023/08/28 13:11:42;;;;;;;1.27;0.80;;;22.80;61.60;;;;;;6194298;28;20054;-70
2023/08/28 13:14:43;;;;;;;0.98;0.68;;;22.80;61.70;;;;;;6194612;28;20080;-71
2023/08/28 13:17:44;;;;;;;1.50;0.63;;;22.70;61.70;;;;;;6194580;28;20026;-70
2023/08/28 13:20:45;;;;;;;2.00;0.70;;;22.80;61.80;;;;;;6194231;28;20034;-71
2023/08/28 13:23:45;;;;;;;1.02;0.60;;;22.80;61.80;;;;;;6194688;28;20033;-70
2023/08/28 13:26:46;;;;;;;1.00;0.60;;;22.80;61.80;;;;;;6194529;28;20030;-71
2023/08/28 13:29:47;;;;;;;1.38;0.55;;;22.70;61.80;;;;;;6193810;28;20019;-70
2023/08/28 13:32:48;;;;;;;2.30;0.60;;;22.80;61.80;;;;;;6193541;28;20480;-71
2023/08/28 13:35:49;;;;;;;0.93;0.50;;;22.80;61.90;;;;;;6198288;28;20118;-70
2023/08/28 13:38:49;;;;;;;0.88;0.70;;;22.80;61.90;;;;;;6192863;28;20018;-71
2023/08/28 13:41:50;;;;;;;0.73;0.50;;;22.80;61.70;;;;;;6193294;28;20091;-71
2023/08/28 13:44:51;;;;;;;0.88;0.60;;;22.80;61.80;;;;;;6193107;28;20021;-71
2023/08/28 13:47:52;;;;;;;1.10;0.68;;;22.80;61.60;;;;;;6192723;28;20035;-71
2023/08/28 13:50:52;;;;;;;2.47;0.77;;;22.80;61.80;;;;;;6192075;28;20425;-70
2023/08/28 13:53:53;;;;;;;1.13;0.60;;;22.80;61.80;;;;;;6191367;28;20065;-71
2023/08/28 13:56:54;;;;;;;1.05;0.50;;;22.70;61.90;;;;;;6192047;28;20061;-71
2023/08/28 13:59:54;;;;;;;0.57;0.50;;;22.80;61.90;;;;;;6192687;28;20026;-70
2023/08/28 14:02:55;;;;;;;1.02;0.57;;;22.70;61.90;;;;;;6192855;28;20109;-70
2023/08/28 14:06:04;;;;;;;0.90;0.70;;;22.80;62.00;;;;;;6192432;28;20055;-71
2023/08/28 14:09:05;;;;;;;0.90;0.52;;;22.80;62.00;;;;;;6192562;28;20034;-71
2023/08/28 14:12:06;;;;;;;1.83;0.73;;;22.80;62.10;;;;;;6192726;28;20495;-70
2023/08/28 14:15:07;;;;;;;0.43;0.40;;;22.80;62.10;;;;;;6192376;28;20038;-71
2023/08/28 14:18:08;;;;;;;0.90;0.60;;;22.70;62.00;;;;;;6191986;28;20026;-69
2023/08/28 14:21:09;;;;;;;0.95;0.50;;;22.80;62.10;;;;;;6180289;28;20385;-70
2023/08/28 14:24:10;;;;;;;0.70;0.50;;;22.80;62.20;;;;;;6192636;28;20023;-71
2023/08/28 14:27:10;;;;;;;0.65;0.40;;;22.80;62.20;;;;;;6192138;28;20035;-70
2023/08/28 14:30:11;;;;;;;0.40;0.40;;;22.80;62.20;;;;;;6192655;28;20022;-71
2023/08/28 14:33:11;;;;;;;0.57;0.55;;;22.70;62.10;;;;;;6192073;28;20069;-71
2023/08/28 14:36:12;;;;;;;1.23;0.65;;;22.80;62.20;;;;;;6192024;28;20036;-71
2023/08/28 14:39:13;;;;;;;3.05;1.30;;;22.80;62.00;;;;;;6191865;28;20049;-71
2023/08/28 14:42:14;;;;;;;32.47;10.40;;;22.80;59.90;;;;;;6192400;28;20030;-71
2023/08/28 14:45:15;;;;;;;20.25;6.18;;;22.80;59.90;;;;;;6196981;28;20019;-71
2023/08/28 14:48:16;;;;;;;6.47;2.45;;;22.80;58.20;;;;;;6196566;28;20381;-70
2023/08/28 14:51:16;;;;;;;8.70;2.03;;;22.80;58.00;;;;;;6197475;28;20026;-71
2023/08/28 14:54:17;;;;;;;3.67;1.40;;;22.80;57.50;;;;;;6195723;28;20360;-71
2023/08/28 14:57:17;;;;;;;5.28;2.10;;;22.80;57.70;;;;;;6195073;28;20018;-71
2023/08/28 15:00:19;;;;;;;7.85;1.83;;;22.80;57.80;;;;;;6195821;28;20105;-71
2023/08/28 15:03:20;;;;;;;5.30;1.70;;;22.80;57.20;;;;;;6188225;28;20026;-71
2023/08/28 15:06:21;;;;;;;5.10;1.70;;;22.80;57.20;;;;;;6196109;28;20029;-70
2023/08/28 15:09:22;;;;;;;3.75;1.73;;;22.80;57.30;;;;;;6205422;28;20050;-71
2023/08/28 15:12:23;;;;;;;2.90;1.38;;;22.80;57.10;;;;;;6199534;28;20370;-70
2023/08/28 15:15:24;;;;;;;5.85;1.58;;;22.80;57.00;;;;;;6169225;28;20031;-70
2023/08/28 15:18:25;;;;;;;4.53;1.40;;;22.80;56.80;;;;;;6197127;28;20557;-70
2023/08/28 15:21:26;;;;;;;5.75;1.25;;;22.80;57.10;;;;;;6197669;28;20038;-71
2023/08/28 15:24:26;;;;;;;6.13;1.20;;;22.80;56.70;;;;;;6197078;28;20038;-71
2023/08/28 15:27:27;;;;;;;2.88;1.45;;;22.80;56.90;;;;;;6198164;28;20121;-71
2023/08/28 15:30:29;;;;;;;4.38;1.38;;;22.80;56.80;;;;;;6199694;28;20022;-71
2023/08/28 15:33:30;;;;;;;2.45;1.15;;;22.80;56.20;;;;;;6196688;28;20030;-71
2023/08/28 15:36:30;;;;;;;3.28;1.05;;;22.80;56.70;;;;;;6183944;28;20018;-71
2023/08/28 15:39:31;;;;;;;2.90;1.30;;;22.80;56.70;;;;;;6196435;28;20065;-70
2023/08/28 15:42:32;;;;;;;3.08;1.00;;;22.80;56.50;;;;;;6171961;28;20251;-70
2023/08/28 15:45:32;;;;;;;2.13;1.05;;;22.80;56.60;;;;;;6183636;28;20481;-70